Time;durP1;ratioP1;P1;durP2;ratioP2;P2;SDS_P1;SDS_P2;PMS_P1;PMS_P2;Temp;Humidity;BMP_temperature;BMP_pressure;BME280_temperature;BME280_humidity;BME280_pressure;Samples;Min_cycle;Max_cycle;Signal;HPM_P1;HPM_P2
2022/05/24 00:00:37;;;;;;;;;7.33;7.33;26.20;31.10;;;;;;4957290;28;8954;-74
2022/05/24 00:03:03;;;;;;;;;8.00;8.00;26.20;30.80;;;;;;4956935;28;8796;-76
2022/05/24 00:05:32;;;;;;;;;6.00;6.00;26.30;30.70;;;;;;4956888;28;11517;-77
2022/05/24 00:07:57;;;;;;;;;6.33;6.33;26.30;30.60;;;;;;4971936;28;11582;-76
2022/05/24 00:10:30;;;;;;;;;6.00;6.00;26.30;30.60;;;;;;4957023;28;11491;-77
2022/05/24 00:12:56;;;;;;;;;5.33;5.33;26.20;30.20;;;;;;4956773;28;9272;-76
2022/05/24 00:15:23;;;;;;;;;6.67;6.67;26.20;31.20;;;;;;4960548;28;11515;-76
2022/05/24 00:18:00;;;;;;;;;6.00;6.00;26.10;30.10;;;;;;4974066;28;11532;-76
2022/05/24 00:20:33;;;;;;;;;6.00;6.00;26.00;30.00;;;;;;4969641;28;11643;-76
2022/05/24 00:22:59;;;;;;;;;6.00;6.00;26.00;30.00;;;;;;4976215;28;11478;-76
2022/05/24 00:25:27;;;;;;;;;5.00;5.00;26.00;30.00;;;;;;4975938;28;8778;-76
2022/05/24 00:27:53;;;;;;;;;7.00;7.00;26.00;30.10;;;;;;4975740;28;11508;-76
2022/05/24 00:30:20;;;;;;;;;7.00;7.00;26.10;30.00;;;;;;4991005;28;9439;-76
2022/05/24 00:32:46;;;;;;;;;7.67;7.67;26.10;29.90;;;;;;4976100;28;8789;-76
2022/05/24 00:35:12;;;;;;;;;5.33;5.33;26.10;30.00;;;;;;4975633;28;12532;-76
2022/05/24 00:37:40;;;;;;;;;6.00;6.00;26.00;29.80;;;;;;4975935;28;8843;-76
2022/05/24 00:40:09;;;;;;;;;4.00;4.00;25.90;29.90;;;;;;4975934;28;11461;-76
2022/05/24 00:42:37;;;;;;;;;6.33;6.33;25.90;30.00;;;;;;4975759;28;8762;-73
2022/05/24 00:45:09;;;;;;;;;6.00;6.00;25.70;30.20;;;;;;4975977;28;8794;-76
2022/05/24 00:47:40;;;;;;;;;6.33;6.33;25.70;30.40;;;;;;4975535;28;11496;-76
2022/05/24 00:50:24;;;;;;;;;7.00;7.00;25.60;30.60;;;;;;4975735;28;8766;-76
2022/05/24 00:53:02;;;;;;;;;6.00;6.00;25.70;30.80;;;;;;4969419;28;8805;-75
2022/05/24 00:55:30;;;;;;;;;0.00;0.00;25.60;30.90;;;;;;4966526;28;9446;-76
2022/05/24 00:58:31;;;;;;;;;6.00;6.00;25.70;31.20;;;;;;4956146;28;8824;-76
2022/05/24 01:01:02;;;;;;;;;7.00;7.00;25.70;31.10;;;;;;4956121;29;11487;-76
2022/05/24 01:03:27;;;;;;;;;6.00;6.00;25.70;31.20;;;;;;4956432;29;8799;-76
2022/05/24 01:05:53;;;;;;;;;6.33;6.33;25.70;31.30;;;;;;4956297;28;11484;-76
2022/05/24 01:08:19;;;;;;;;;7.00;7.00;25.70;31.30;;;;;;4956099;29;9431;-76
2022/05/24 01:10:50;;;;;;;;;6.67;6.67;25.70;31.30;;;;;;4956117;29;8780;-76
2022/05/24 01:13:24;;;;;;;;;6.00;6.00;25.70;31.60;;;;;;4956231;29;8792;-76
2022/05/24 01:15:51;;;;;;;;;6.67;6.67;25.80;31.60;;;;;;4955960;29;11499;-76
2022/05/24 01:18:17;;;;;;;;;5.00;5.00;25.70;31.70;;;;;;4956187;28;8827;-74
2022/05/24 01:20:46;;;;;;;;;5.33;5.33;25.70;31.60;;;;;;4958600;28;11486;-74
2022/05/24 01:23:31;;;;;;;;;6.00;6.00;25.70;31.20;;;;;;4975317;28;11475;-75
2022/05/24 01:26:22;;;;;;;;;3.67;3.67;25.70;31.30;;;;;;4975156;28;11486;-74
2022/05/24 01:28:56;;;;;;;;;7.00;7.00;25.80;31.10;;;;;;4975313;28;8786;-76
2022/05/24 01:31:24;;;;;;;;;5.00;5.00;25.80;31.10;;;;;;4975118;28;11563;-75
2022/05/24 01:36:41;;;;;;;;;7.67;7.67;25.80;30.70;;;;;;4975170;28;11477;-75
2022/05/24 01:39:10;;;;;;;;;7.67;7.67;25.80;30.40;;;;;;4975227;28;8808;-74
2022/05/24 01:41:47;;;;;;;;;8.00;8.00;25.80;30.30;;;;;;4992348;28;8789;-74
2022/05/24 01:44:18;;;;;;;;;7.00;7.00;25.70;30.50;;;;;;4979084;28;8992;-74
2022/05/24 01:46:46;;;;;;;;;6.00;6.00;25.60;30.50;;;;;;4978713;28;11567;-74
2022/05/24 01:49:18;;;;;;;;;7.67;7.33;25.70;30.60;;;;;;4978929;28;8797;-74
2022/05/24 01:51:56;;;;;;;;;5.00;5.00;25.70;30.70;;;;;;4978471;28;11471;-74
2022/05/24 01:54:22;;;;;;;;;9.00;9.00;25.60;30.30;;;;;;4978713;28;8939;-74
2022/05/24 01:56:58;;;;;;;;;8.00;8.00;25.50;30.70;;;;;;4978415;28;11472;-74
2022/05/24 01:59:25;;;;;;;;;7.00;7.00;25.60;30.80;;;;;;4978746;28;12308;-74
2022/05/24 02:01:57;;;;;;;;;6.00;6.00;25.50;30.80;;;;;;4978487;28;9630;-75
2022/05/24 02:04:25;;;;;;;;;5.33;5.33;25.30;31.20;;;;;;4978422;28;11457;-74
2022/05/24 02:07:28;;;;;;;;;7.33;7.33;25.30;31.30;;;;;;4978293;28;11518;-74
2022/05/24 02:09:55;;;;;;;;;7.00;7.00;25.30;31.50;;;;;;4977020;28;11522;-74
2022/05/24 02:12:38;;;;;;;;;7.00;7.00;25.40;31.30;;;;;;4978466;28;11567;-75
2022/05/24 02:15:11;;;;;;;;;6.67;6.67;25.40;31.40;;;;;;4978554;28;11706;-74
2022/05/24 02:17:54;;;;;;;;;7.00;7.00;25.30;31.40;;;;;;4978125;28;11513;-74
2022/05/24 02:20:27;;;;;;;;;7.00;7.00;25.30;31.70;;;;;;4978429;28;11503;-74
2022/05/24 02:22:53;;;;;;;;;4.00;4.00;25.30;31.70;;;;;;4978039;28;11518;-74
2022/05/24 02:25:50;;;;;;;;;8.00;8.00;25.30;32.10;;;;;;4977976;28;11535;-74
2022/05/24 02:28:19;;;;;;;;;5.67;5.67;25.50;32.40;;;;;;4976265;28;9420;-74
2022/05/24 02:30:58;;;;;;;;;7.67;7.67;25.50;31.70;;;;;;4978034;28;8778;-74
2022/05/24 02:33:24;;;;;;;;;4.33;4.33;25.50;31.60;;;;;;4978023;28;8781;-75
2022/05/24 02:35:50;;;;;;;;;7.00;7.00;25.40;31.50;;;;;;4977978;28;8816;-74
2022/05/24 02:38:17;;;;;;;;;5.00;5.00;25.50;31.50;;;;;;4977759;28;8813;-74
2022/05/24 02:43:27;;;;;;;;;9.33;9.33;25.40;31.60;;;;;;4977712;28;8753;-74
2022/05/24 02:45:53;;;;;;;;;9.00;9.00;25.50;31.70;;;;;;4977770;28;8754;-74
2022/05/24 02:48:19;;;;;;;;;9.33;9.33;25.50;31.90;;;;;;4977690;28;8782;-74
2022/05/24 02:50:44;;;;;;;;;7.00;7.00;25.60;32.30;;;;;;4977785;28;8778;-74
2022/05/24 02:53:10;;;;;;;;;7.00;7.00;25.50;32.40;;;;;;4976421;28;9404;-74
2022/05/24 02:55:37;;;;;;;;;7.67;7.67;25.50;32.40;;;;;;4977631;28;8754;-74
2022/05/24 02:58:03;;;;;;;;;6.67;6.67;25.50;32.40;;;;;;4977375;28;11520;-74
2022/05/24 03:00:30;;;;;;;;;6.33;6.33;25.50;32.40;;;;;;4977384;28;12110;-75
2022/05/24 03:02:55;;;;;;;;;7.33;7.33;25.50;32.30;;;;;;4975403;28;12152;-75
2022/05/24 03:05:22;;;;;;;;;7.00;7.00;25.50;32.20;;;;;;4961692;28;11617;-74
2022/05/24 03:10:33;;;;;;;;;7.00;7.00;25.40;32.00;;;;;;4962400;28;11514;-76
2022/05/24 03:15:45;;;;;;;;;7.00;7.00;25.20;32.70;;;;;;4957832;28;11536;-75
2022/05/24 03:18:13;;;;;;;;;7.00;7.00;25.20;33.00;;;;;;4957874;28;11515;-75
2022/05/24 03:20:40;;;;;;;;;8.00;8.00;25.10;33.20;;;;;;4959682;28;11476;-75
2022/05/24 03:23:06;;;;;;;;;8.33;8.33;25.10;33.10;;;;;;4976859;28;11480;-75
2022/05/24 03:25:32;;;;;;;;;5.33;5.33;25.20;33.10;;;;;;4977263;28;8892;-75
2022/05/24 03:28:03;;;;;;;;;8.00;8.00;25.20;33.30;;;;;;4977101;28;11489;-77
2022/05/24 03:30:30;;;;;;;;;8.00;8.00;25.20;33.10;;;;;;4977017;28;8864;-75
2022/05/24 03:32:55;;;;;;;;;7.67;7.67;25.10;33.40;;;;;;4977241;28;8762;-76
2022/05/24 03:35:21;;;;;;;;;6.00;6.00;25.10;33.60;;;;;;4976707;28;8848;-75
2022/05/24 03:37:47;;;;;;;;;7.00;7.00;25.10;33.20;;;;;;4976722;28;8852;-75
2022/05/24 03:40:13;;;;;;;;;7.33;7.33;25.10;33.30;;;;;;4966853;28;8903;-75
2022/05/24 03:42:39;;;;;;;;;7.00;7.00;25.10;33.50;;;;;;4976324;28;8766;-75
2022/05/24 03:45:07;;;;;;;;;8.00;8.00;25.10;34.10;;;;;;4958082;28;11562;-75
2022/05/24 03:47:33;;;;;;;;;7.00;7.00;25.10;34.10;;;;;;4957552;28;8779;-75
2022/05/24 03:49:59;;;;;;;;;7.00;7.00;25.00;33.50;;;;;;4957401;28;11494;-75
2022/05/24 03:52:25;;;;;;;;;7.67;7.67;25.00;33.60;;;;;;4973500;28;8777;-75
2022/05/24 03:54:51;;;;;;;;;9.00;9.00;24.90;33.70;;;;;;4976384;28;9467;-74
2022/05/24 04:00:02;;;;;;;;;9.00;9.00;25.10;34.30;;;;;;4976426;28;9380;-75
2022/05/24 04:02:28;;;;;;;;;8.67;8.67;25.20;34.70;;;;;;4976467;28;8777;-75
2022/05/24 04:04:53;;;;;;;;;9.67;9.67;25.20;34.10;;;;;;4975858;28;8892;-74
2022/05/24 04:07:19;;;;;;;;;7.33;7.00;25.20;33.60;;;;;;4976538;28;8785;-74
2022/05/24 04:09:45;;;;;;;;;8.00;8.00;25.20;33.60;;;;;;4991301;28;8828;-75
2022/05/24 04:12:11;;;;;;;;;7.00;7.00;25.20;33.50;;;;;;4976429;28;8782;-75
2022/05/24 04:14:36;;;;;;;;;9.00;9.00;25.20;33.40;;;;;;4976390;28;8827;-75
2022/05/24 04:17:03;;;;;;;;;9.00;9.00;25.20;33.50;;;;;;4975961;28;8793;-75
2022/05/24 04:19:28;;;;;;;;;10.00;10.00;25.20;33.40;;;;;;4976306;28;8806;-75
2022/05/24 04:21:54;;;;;;;;;9.00;9.00;25.20;33.30;;;;;;4976072;28;8793;-75
2022/05/24 04:24:20;;;;;;;;;9.00;9.00;25.30;33.10;;;;;;4976240;28;8789;-75
2022/05/24 04:26:47;;;;;;;;;8.67;8.67;25.40;33.10;;;;;;4991118;28;8785;-75
2022/05/24 04:29:12;;;;;;;;;8.67;8.67;25.30;33.10;;;;;;4975827;28;8786;-75
2022/05/24 04:31:39;;;;;;;;;11.00;11.00;25.40;33.20;;;;;;4975792;28;8782;-75
2022/05/24 04:34:05;;;;;;;;;9.67;9.67;25.40;33.60;;;;;;4975834;28;8903;-74
2022/05/24 04:36:31;;;;;;;;;10.67;10.67;25.40;33.60;;;;;;4975745;28;8798;-74
2022/05/24 04:38:57;;;;;;;;;11.00;11.00;25.40;33.80;;;;;;4988168;28;8841;-75
2022/05/24 04:44:08;;;;;;;;;11.67;11.67;25.50;34.00;;;;;;4970705;28;8833;-75
2022/05/24 04:49:23;;;;;;;;;9.33;9.33;25.40;32.90;;;;;;4975692;28;8773;-76
2022/05/24 04:51:54;;;;;;;;;9.00;9.00;25.40;32.60;;;;;;4975573;28;8813;-76
2022/05/24 04:54:20;;;;;;;;;6.00;6.00;25.40;32.30;;;;;;4975913;28;8869;-76
2022/05/24 04:56:46;;;;;;;;;10.00;10.00;25.50;32.30;;;;;;4989394;28;8896;-77
2022/05/24 04:59:13;;;;;;;;;8.33;8.33;25.60;32.30;;;;;;4972330;28;9020;-76
2022/05/24 05:01:38;;;;;;;;;9.33;9.33;25.70;32.70;;;;;;4975726;28;8983;-75
2022/05/24 05:04:04;;;;;;;;;10.33;10.33;25.70;32.80;;;;;;4975373;28;8785;-76
2022/05/24 05:06:30;;;;;;;;;10.67;10.67;25.80;32.80;;;;;;4974188;28;8797;-76
2022/05/24 05:08:56;;;;;;;;;11.00;11.00;25.80;32.50;;;;;;4965894;28;8793;-77
2022/05/24 05:11:22;;;;;;;;;9.00;9.00;25.90;32.50;;;;;;4974817;28;8769;-76
2022/05/24 05:13:48;;;;;;;;;12.33;12.33;25.80;32.50;;;;;;4974914;28;8899;-76
2022/05/24 05:16:13;;;;;;;;;13.00;13.00;25.80;32.40;;;;;;4976720;28;8797;-76
2022/05/24 05:18:39;;;;;;;;;8.67;8.67;26.00;32.60;;;;;;4979362;28;8805;-76
2022/05/24 05:21:05;;;;;;;;;12.33;12.33;26.00;32.00;;;;;;4991709;28;8786;-76
2022/05/24 05:23:31;;;;;;;;;13.00;13.00;26.00;33.10;;;;;;4979306;28;8800;-76
2022/05/24 05:25:56;;;;;;;;;11.00;11.00;26.10;32.60;;;;;;4979196;28;8789;-76
2022/05/24 05:28:22;;;;;;;;;13.33;13.33;26.10;32.80;;;;;;4978187;28;8820;-76
2022/05/24 05:33:34;;;;;;;;;13.67;13.67;26.10;32.70;;;;;;4978831;28;8901;-76
2022/05/24 05:36:00;;;;;;;;;13.00;13.00;26.10;32.70;;;;;;4978954;28;8777;-76
2022/05/24 05:38:26;;;;;;;;;14.00;14.00;26.00;32.90;;;;;;4978787;28;8809;-77
2022/05/24 05:40:53;;;;;;;;;14.00;14.00;26.00;32.80;;;;;;4979125;28;8788;-76
2022/05/24 05:43:19;;;;;;;;;14.67;14.67;25.70;33.30;;;;;;4978928;28;8773;-77
2022/05/24 05:45:59;;;;;;;;;16.00;16.00;25.70;33.70;;;;;;4978792;28;8777;-77
2022/05/24 05:48:26;;;;;;;;;14.00;14.00;25.50;34.30;;;;;;4993937;28;8785;-77
2022/05/24 05:50:52;;;;;;;;;13.67;13.67;25.60;34.10;;;;;;4978553;28;8779;-77
2022/05/24 05:53:19;;;;;;;;;13.00;13.00;25.80;34.20;;;;;;4978848;28;8845;-77
2022/05/24 05:55:45;;;;;;;;;15.00;15.00;26.00;34.00;;;;;;4978610;28;8794;-77
2022/05/24 05:58:11;;;;;;;;;19.00;19.00;26.00;34.10;;;;;;4978403;28;8987;-78
2022/05/24 06:00:39;;;;;;;;;22.33;22.33;26.20;33.80;;;;;;4978603;28;9535;-76
2022/05/24 06:03:06;;;;;;;;;17.33;17.33;26.30;34.00;;;;;;4978535;28;8792;-77
2022/05/24 06:05:32;;;;;;;;;16.00;16.00;26.50;33.90;;;;;;4978529;28;8798;-77
2022/05/24 06:07:59;;;;;;;;;18.00;18.00;26.50;33.70;;;;;;4978192;28;8786;-78
2022/05/24 06:10:28;;;;;;;;;15.67;15.67;26.60;33.90;;;;;;4978469;28;8770;-77
2022/05/24 06:12:55;;;;;;;;;17.33;17.33;26.60;34.30;;;;;;4978311;28;8777;-77
2022/05/24 06:15:21;;;;;;;;;17.33;17.33;26.60;34.30;;;;;;4978021;28;8944;-77
2022/05/24 06:17:52;;;;;;;;;17.33;17.33;26.70;36.00;;;;;;4978425;28;8931;-79
2022/05/24 06:20:21;;;;;;;;;14.67;14.67;26.70;35.10;;;;;;4978192;28;8781;-76
2022/05/24 06:22:49;;;;;;;;;16.00;16.00;26.60;34.70;;;;;;4978316;28;8824;-78
2022/05/24 06:25:16;;;;;;;;;17.67;17.67;26.70;35.30;;;;;;4978103;28;8778;-76
2022/05/24 06:27:42;;;;;;;;;19.33;18.67;26.70;34.90;;;;;;4977665;28;8908;-78
2022/05/24 06:30:08;;;;;;;;;15.67;15.67;26.70;34.90;;;;;;4993049;28;8952;-77
2022/05/24 06:32:34;;;;;;;;;13.67;13.67;26.70;34.80;;;;;;4977952;28;8785;-77
2022/05/24 06:35:00;;;;;;;;;17.33;17.33;26.70;35.10;;;;;;4977661;28;9428;-77
2022/05/24 06:37:26;;;;;;;;;18.00;18.00;26.70;34.90;;;;;;4977710;28;8915;-78
2022/05/24 06:39:52;;;;;;;;;19.67;19.67;26.80;35.20;;;;;;4977914;28;8800;-77
2022/05/24 06:42:17;;;;;;;;;18.00;18.00;26.90;35.20;;;;;;4977635;28;8889;-78
2022/05/24 06:44:43;;;;;;;;;16.33;16.33;26.90;35.00;;;;;;4977553;28;8902;-75
2022/05/24 06:47:10;;;;;;;;;20.00;20.00;26.90;35.10;;;;;;4977684;28;8754;-75
2022/05/24 06:49:36;;;;;;;;;14.33;14.33;26.90;34.70;;;;;;4977684;28;8784;-74
2022/05/24 06:52:03;;;;;;;;;14.67;14.67;27.00;35.20;;;;;;4977444;28;8847;-78
2022/05/24 06:54:31;;;;;;;;;19.33;19.33;27.10;35.00;;;;;;4977536;28;8762;-79
2022/05/24 06:56:56;;;;;;;;;18.33;18.33;27.20;35.10;;;;;;4977332;28;8848;-76
2022/05/24 07:02:25;;;;;;;;;21.33;21.33;27.30;35.20;;;;;;4977506;28;8749;-74
2022/05/24 07:05:19;;;;;;;;;18.00;18.00;27.30;35.00;;;;;;4977274;28;9478;-74
2022/05/24 07:07:45;;;;;;;;;17.67;17.67;27.40;35.40;;;;;;4977320;28;8809;-74
2022/05/24 07:10:15;;;;;;;;;20.33;20.33;27.50;35.70;;;;;;4977015;28;8785;-74
2022/05/24 07:12:42;;;;;;;;;19.33;19.33;27.50;36.10;;;;;;4977413;28;8792;-74
2022/05/24 07:15:08;;;;;;;;;16.67;16.67;27.50;35.90;;;;;;4977566;28;8817;-74
2022/05/24 07:17:34;;;;;;;;;19.33;19.33;27.50;35.80;;;;;;4977300;28;8813;-74
2022/05/24 07:20:00;;;;;;;;;17.33;17.33;27.60;35.50;;;;;;4976969;28;8816;-74
2022/05/24 07:22:26;;;;;;;;;14.33;14.33;27.60;35.80;;;;;;4977099;28;8794;-74
2022/05/24 07:24:52;;;;;;;;;19.33;19.33;27.70;35.80;;;;;;4977009;28;8758;-74
2022/05/24 07:27:20;;;;;;;;;20.00;19.33;27.70;35.50;;;;;;4976868;28;8857;-74
2022/05/24 07:29:46;;;;;;;;;16.33;16.33;27.60;35.70;;;;;;4976845;28;8793;-74
2022/05/24 07:32:11;;;;;;;;;17.33;17.33;27.70;36.50;;;;;;4976885;28;8797;-74
2022/05/24 07:34:38;;;;;;;;;16.00;16.00;27.80;36.00;;;;;;4976621;28;9559;-74
2022/05/24 07:37:05;;;;;;;;;18.67;18.67;27.90;35.70;;;;;;4976498;28;8766;-74
2022/05/24 07:39:32;;;;;;;;;18.00;18.00;27.90;35.70;;;;;;4976052;28;8884;-74
2022/05/24 07:47:29;;;;;;;;;18.00;18.00;28.10;36.30;;;;;;4976604;28;8753;-75
2022/05/24 07:49:55;;;;;;;;;18.33;18.33;28.20;36.00;;;;;;4976744;28;9416;-72
2022/05/24 07:52:21;;;;;;;;;19.33;19.33;28.30;36.30;;;;;;4976444;28;8801;-73
2022/05/24 07:54:46;;;;;;;;;21.00;21.00;28.30;36.00;;;;;;4974775;28;8765;-73
2022/05/24 07:57:12;;;;;;;;;20.67;20.67;28.00;36.30;;;;;;4976332;28;8820;-73
2022/05/24 07:59:42;;;;;;;;;23.00;23.00;28.10;36.50;;;;;;4976324;28;9602;-73
2022/05/24 08:02:08;;;;;;;;;18.33;18.33;28.20;36.90;;;;;;4976565;28;9427;-73
2022/05/24 08:04:34;;;;;;;;;16.67;16.67;28.10;37.80;;;;;;4976508;28;8916;-73
2022/05/24 08:07:00;;;;;;;;;14.67;14.67;28.30;37.70;;;;;;4976178;28;8859;-73
2022/05/24 08:09:26;;;;;;;;;17.00;17.00;28.40;37.30;;;;;;4976054;28;8855;-73
2022/05/24 08:11:52;;;;;;;;;17.67;17.67;28.40;37.50;;;;;;4976281;28;8766;-73
2022/05/24 08:14:18;;;;;;;;;16.00;16.00;28.40;37.50;;;;;;4976468;28;8809;-74
2022/05/24 08:16:44;;;;;;;;;18.00;18.00;28.30;37.60;;;;;;4976236;28;8875;-73
2022/05/24 08:19:09;;;;;;;;;18.00;18.00;28.50;37.10;;;;;;4975822;28;8829;-72
2022/05/24 08:21:36;;;;;;;;;19.00;19.00;28.60;36.60;;;;;;4976011;28;8856;-72
2022/05/24 08:24:01;;;;;;;;;17.67;17.67;28.80;36.50;;;;;;4975929;28;8762;-72
2022/05/24 08:26:28;;;;;;;;;19.67;19.67;28.80;37.30;;;;;;4976115;28;8981;-73
2022/05/24 08:28:54;;;;;;;;;20.33;20.33;28.60;37.30;;;;;;4975894;28;8785;-72
2022/05/24 08:31:19;;;;;;;;;17.67;17.67;28.90;37.20;;;;;;4975789;28;8804;-76
2022/05/24 08:33:47;;;;;;;;;20.33;20.33;28.90;38.10;;;;;;4975435;28;8814;-76
2022/05/24 08:36:13;;;;;;;;;20.67;20.67;29.00;37.50;;;;;;4975755;28;8795;-78
2022/05/24 08:38:40;;;;;;;;;21.33;21.33;29.00;37.70;;;;;;4975517;28;8840;-74
2022/05/24 08:41:19;;;;;;;;;20.33;20.33;29.10;37.40;;;;;;4990889;28;8858;-79
2022/05/24 08:43:50;;;;;;;;;21.00;21.00;29.30;36.90;;;;;;4975890;28;8909;-77
2022/05/24 08:49:13;;;;;;;;;19.00;19.00;29.50;36.50;;;;;;4975580;28;8927;-78
2022/05/24 08:52:09;;;;;;;;;19.00;19.00;29.70;36.60;;;;;;4975616;28;8773;-77
2022/05/24 08:54:43;;;;;;;;;23.67;23.67;30.00;35.70;;;;;;4954008;28;8837;-75
2022/05/24 08:57:16;;;;;;;;;23.00;23.00;30.10;36.50;;;;;;4954017;28;8911;-77
2022/05/24 09:00:06;;;;;;;;;23.67;23.67;30.20;35.90;;;;;;4954310;28;8793;-77
2022/05/24 09:02:32;;;;;;;;;17.00;17.00;30.20;36.20;;;;;;4954037;28;9462;-79
2022/05/24 09:04:58;;;;;;;;;23.67;23.67;30.20;35.60;;;;;;4954029;29;8799;-76
2022/05/24 09:07:29;;;;;;;;;21.00;21.00;30.20;36.20;;;;;;4953926;29;8801;-73
2022/05/24 09:10:10;;;;;;;;;24.33;24.33;30.30;35.80;;;;;;4954001;29;9366;-73
2022/05/24 09:12:53;;;;;;;;;23.00;23.00;30.40;35.50;;;;;;4953941;29;8795;-73
2022/05/24 09:18:57;;;;;;;;;22.67;22.67;30.80;34.90;;;;;;4953773;29;8818;-73
2022/05/24 09:21:26;;;;;;;;;25.33;25.33;30.80;35.90;;;;;;4953785;29;8787;-73
2022/05/24 09:24:16;;;;;;;;;25.67;25.67;31.00;35.80;;;;;;4953672;29;8795;-74
2022/05/24 09:27:22;;;;;;;;;28.33;28.33;31.20;36.50;;;;;;4953704;29;8881;-75
2022/05/24 09:30:03;;;;;;;;;24.67;24.67;31.00;35.40;;;;;;4953754;28;8798;-75
2022/05/24 09:32:41;;;;;;;;;25.33;25.33;30.90;36.60;;;;;;4975224;28;8881;-76
2022/05/24 09:35:16;;;;;;;;;25.33;25.33;31.20;36.70;;;;;;4990244;28;8841;-76
2022/05/24 09:37:45;;;;;;;;;27.67;27.67;31.50;36.10;;;;;;4975028;28;8859;-75
2022/05/24 09:40:24;;;;;;;;;26.33;26.33;31.50;34.50;;;;;;4975074;28;8774;-77
2022/05/24 09:42:50;;;;;;;;;20.00;20.00;31.70;34.60;;;;;;4975002;28;8804;-75
2022/05/24 09:45:26;;;;;;;;;22.33;22.33;31.70;34.60;;;;;;4975362;28;8919;-74
2022/05/24 09:47:57;;;;;;;;;17.33;17.33;31.60;35.40;;;;;;4975122;28;8805;-75
2022/05/24 09:50:30;;;;;;;;;27.00;27.00;31.80;36.60;;;;;;4974952;28;9376;-76
2022/05/24 09:53:14;;;;;;;;;24.00;24.00;32.10;35.70;;;;;;4975014;28;8876;-74
2022/05/24 09:55:54;;;;;;;;;27.67;27.67;32.30;34.40;;;;;;4975284;28;8781;-76
2022/05/24 09:58:28;;;;;;;;;25.00;25.00;32.50;33.90;;;;;;4975132;28;8878;-78
2022/05/24 10:01:07;;;;;;;;;24.00;24.00;32.60;33.70;;;;;;4974706;28;8789;-80
2022/05/24 10:03:37;;;;;;;;;24.33;24.33;32.80;34.40;;;;;;4978742;28;8766;-78
2022/05/24 10:06:09;;;;;;;;;24.00;24.00;32.90;33.50;;;;;;4993442;28;8809;-78
2022/05/24 10:08:44;;;;;;;;;21.00;21.00;33.20;33.20;;;;;;4978221;28;8781;-78
2022/05/24 10:11:36;;;;;;;;;24.00;24.00;33.30;32.60;;;;;;4978164;28;8789;-76
2022/05/24 10:14:26;;;;;;;;;24.67;24.67;33.50;32.10;;;;;;4978202;28;8821;-80
2022/05/24 10:17:11;;;;;;;;;21.67;21.67;33.30;32.50;;;;;;4978036;28;8793;-76
2022/05/24 10:19:49;;;;;;;;;25.00;24.67;33.50;33.70;;;;;;4978574;28;9400;-79
2022/05/24 10:22:42;;;;;;;;;27.00;27.00;33.70;31.90;;;;;;4993411;28;9448;-82
2022/05/24 10:25:20;;;;;;;;;27.33;27.33;33.90;31.40;;;;;;4978296;28;8804;-83
2022/05/24 10:28:36;;;;;;;;;24.67;24.67;34.10;31.10;;;;;;4977877;28;8801;-82
2022/05/24 10:31:25;;;;;;;;;24.67;24.67;34.30;30.70;;;;;;4978103;28;8786;-83
2022/05/24 10:39:59;;;;;;;;;24.00;24.00;34.80;30.10;;;;;;4978313;28;9562;-83
2022/05/24 10:42:47;;;;;;;;;19.33;19.33;35.00;29.80;;;;;;4977736;28;8807;-82
2022/05/24 10:45:17;;;;;;;;;20.67;20.67;35.10;29.90;;;;;;4977989;28;8793;-73
2022/05/24 10:47:57;;;;;;;;;22.67;22.67;35.20;29.80;;;;;;4969012;28;8814;-76
2022/05/24 10:50:39;;;;;;;;;21.33;21.33;35.30;29.80;;;;;;4958153;28;8788;-74
2022/05/24 10:53:19;;;;;;;;;27.00;27.00;35.50;29.00;;;;;;4973233;28;8816;-79
2022/05/24 10:56:23;;;;;;;;;25.33;25.33;35.60;29.30;;;;;;4974854;28;8795;-79
2022/05/24 10:58:51;;;;;;;;;26.67;26.67;35.70;29.00;;;;;;4977185;28;8813;-79
2022/05/24 11:01:34;;;;;;;;;21.00;21.00;35.80;28.30;;;;;;4974601;28;8782;-79
2022/05/24 11:04:15;;;;;;;;;23.33;23.33;36.50;28.70;;;;;;4973145;28;8970;-78
2022/05/24 11:06:47;;;;;;;;;22.67;22.67;36.80;28.00;;;;;;4957913;28;8870;-78
2022/05/24 11:09:19;;;;;;;;;21.67;21.67;37.10;28.40;;;;;;4973260;28;9443;-81
2022/05/24 11:12:09;;;;;;;;;24.67;24.67;37.10;27.80;;;;;;4971833;28;8876;-80
2022/05/24 11:14:49;;;;;;;;;27.00;27.00;37.20;27.40;;;;;;4976397;28;8839;-79
2022/05/24 11:17:17;;;;;;;;;25.00;25.00;37.60;27.10;;;;;;4957678;28;8796;-79
2022/05/24 11:19:50;;;;;;;;;25.67;25.67;37.70;27.40;;;;;;4957852;28;12267;-79
2022/05/24 11:22:38;;;;;;;;;22.67;22.67;37.70;27.10;;;;;;4972954;28;8774;-79
2022/05/24 11:25:43;;;;;;;;;24.67;24.67;37.80;26.80;;;;;;4992065;28;8900;-77
2022/05/24 11:28:15;;;;;;;;;26.00;26.00;38.00;26.70;;;;;;4955286;28;11640;-76
2022/05/24 11:30:42;;;;;;;;;24.67;24.67;38.00;26.60;;;;;;4955641;28;8799;-77
2022/05/24 11:33:11;;;;;;;;;22.00;22.00;38.10;26.50;;;;;;4955117;28;11604;-78
2022/05/24 11:35:46;;;;;;;;;25.67;25.67;37.80;26.60;;;;;;4955340;28;11511;-75
2022/05/24 11:38:41;;;;;;;;;13.33;13.33;38.30;26.60;;;;;;4946405;28;8811;-75
2022/05/24 11:41:10;;;;;;;;;23.00;23.00;38.70;26.00;;;;;;4955305;28;12131;-76
2022/05/24 11:43:36;;;;;;;;;25.33;25.33;39.50;26.00;;;;;;4953513;28;8815;-76
2022/05/24 11:46:06;;;;;;;;;24.00;24.00;40.20;25.90;;;;;;4945783;28;8821;-76
2022/05/24 11:48:48;;;;;;;;;24.33;24.33;40.20;24.90;;;;;;4949371;28;9496;-76
2022/05/24 11:51:36;;;;;;;;;22.67;22.67;41.10;24.10;;;;;;4948541;28;8798;-76
2022/05/24 11:54:06;;;;;;;;;22.33;22.33;43.20;21.80;;;;;;4950426;28;11592;-75
2022/05/24 11:56:32;;;;;;;;;25.00;25.00;44.60;21.00;;;;;;4946437;28;11598;-76
2022/05/24 11:59:04;;;;;;;;;18.25;18.25;46.80;21.30;;;;;;4949444;28;8961;-76
2022/05/24 12:01:40;;;;;;;;;20.33;20.33;49.40;18.50;;;;;;4954000;28;11620;-76
2022/05/24 12:09:59;;;;;;;;;17.00;17.00;48.90;16.50;;;;;;4965047;28;11548;-79
2022/05/24 12:12:35;;;;;;;;;14.33;14.33;46.20;18.40;;;;;;4965688;28;11597;-73
2022/05/24 12:15:19;;;;;;;;;19.00;19.00;44.70;18.90;;;;;;4976468;28;11590;-81
2022/05/24 12:18:07;;;;;;;;;20.67;20.67;43.00;20.30;;;;;;4959885;28;11688;-77
2022/05/24 12:20:35;;;;;;;;;19.67;19.67;42.60;21.40;;;;;;4965740;28;11571;-80
2022/05/24 12:23:07;;;;;;;;;19.67;19.67;41.40;21.80;;;;;;4967905;28;11578;-82
2022/05/24 12:25:54;;;;;;;;;23.33;23.33;40.90;23.30;;;;;;4973632;28;11636;-78
2022/05/24 12:28:25;;;;;;;;;20.67;20.67;40.60;23.70;;;;;;4973815;28;11556;-76
2022/05/24 12:30:51;;;;;;;;;24.33;24.33;40.40;23.60;;;;;;4972808;28;11579;-78
2022/05/24 12:33:25;;;;;;;;;19.67;19.67;40.00;24.20;;;;;;4974522;28;8812;-79
2022/05/24 12:36:06;;;;;;;;;21.00;21.00;38.80;24.30;;;;;;4971577;28;12496;-80
2022/05/24 12:38:34;;;;;;;;;22.33;22.33;38.20;24.70;;;;;;4970029;28;11613;-79
2022/05/24 12:41:33;;;;;;;;;21.67;21.67;38.10;25.40;;;;;;4962281;28;11603;-79
2022/05/24 12:44:15;;;;;;;;;24.00;24.00;38.30;25.20;;;;;;4974755;28;12214;-79
2022/05/24 12:46:43;;;;;;;;;22.00;22.00;38.30;26.20;;;;;;4975721;28;11630;-79
2022/05/24 12:49:15;;;;;;;;;18.33;18.33;38.40;26.10;;;;;;4975401;28;11531;-80
2022/05/24 12:51:41;;;;;;;;;21.67;21.67;38.50;25.00;;;;;;4975383;28;11561;-79
2022/05/24 12:54:25;;;;;;;;;19.33;19.33;38.60;25.00;;;;;;4975532;28;11566;-78
2022/05/24 12:56:57;;;;;;;;;21.00;21.00;38.40;25.00;;;;;;4975663;28;11540;-76
2022/05/24 12:59:36;;;;;;;;;20.33;20.33;38.20;25.60;;;;;;4975474;28;11594;-79
2022/05/24 13:02:33;;;;;;;;;18.00;18.00;38.30;25.20;;;;;;4975346;28;11626;-74
2022/05/24 13:05:11;;;;;;;;;17.67;17.67;38.00;24.90;;;;;;4974764;28;11553;-77
2022/05/24 13:07:50;;;;;;;;;19.67;19.67;38.10;25.40;;;;;;4975454;28;12259;-76
2022/05/24 13:10:19;;;;;;;;;21.67;21.67;38.30;25.50;;;;;;4975457;28;11643;-77
2022/05/24 13:13:06;;;;;;;;;25.67;25.67;38.40;24.90;;;;;;4975261;28;11569;-80
2022/05/24 13:15:46;;;;;;;;;20.67;20.67;38.60;25.40;;;;;;4975857;28;11614;-79
2022/05/24 13:18:15;;;;;;;;;21.00;21.00;38.90;24.90;;;;;;4975232;28;11571;-76
2022/05/24 13:20:48;;;;;;;;;20.00;20.00;38.90;24.90;;;;;;4975075;28;12098;-79
2022/05/24 13:23:35;;;;;;;;;22.67;22.67;38.80;25.10;;;;;;4990353;28;11593;-84
2022/05/24 13:26:04;;;;;;;;;17.00;17.00;38.80;25.70;;;;;;4975029;28;11559;-80
2022/05/24 13:28:57;;;;;;;;;23.67;23.67;38.50;25.50;;;;;;4975115;28;11578;-82
2022/05/24 13:34:18;;;;;;;;;23.67;23.67;38.10;25.70;;;;;;4956865;28;11609;-75
2022/05/24 13:36:46;;;;;;;;;21.67;21.67;38.20;25.80;;;;;;4971814;28;8838;-78
2022/05/24 13:39:21;;;;;;;;;21.67;21.67;38.10;25.30;;;;;;4968856;28;11664;-76
2022/05/24 13:42:10;;;;;;;;;21.67;21.67;37.90;25.60;;;;;;4979412;28;11618;-78
2022/05/24 13:44:39;;;;;;;;;21.33;21.33;37.90;25.80;;;;;;4979209;28;11576;-75
2022/05/24 13:47:29;;;;;;;;;21.33;21.33;37.80;26.00;;;;;;4978768;28;12265;-81
2022/05/24 13:49:55;;;;;;;;;19.67;19.67;37.60;25.80;;;;;;4974592;28;8781;-79
2022/05/24 13:52:28;;;;;;;;;18.67;18.67;37.50;25.80;;;;;;4978382;28;11660;-78
2022/05/24 13:55:17;;;;;;;;;18.67;18.67;37.50;26.40;;;;;;4993149;28;8797;-76